メインページ
METAR-TAF:

METAR-TAF

空港 :

プンタアレナス, チリ

緯度: 53-00S, 経度: 070-51W, 海抜: 37m

現時点の気象観測

当レポートは25分前の06:00(UTC)に作成
無風
気温 2°C
湿度 80%
気圧 1017 hPa
視程10km以上
1,500メートル以下は雲なし、積乱雲なし

METAR: SCCI 200600Z 00000KT CAVOK 02/M01 Q1017 NOSIG

時間: 03:25 (06:25 UTC)

予報

当レポートは1時間29分前の04:56(UTC)に作成
予報は20日の 06時(UTC)から 21日の 06時(UTC)まで有効
北東の風 5kt
視程10km以上
1,500メートル以下は雲なし、積乱雲なし
20日の 07時(UTC)から 20日の 17時(UTC)まで一時的に
変向風 4kt
視程10km以上
高度4000ftの雲はほとんどない
20日の 09時(UTC)から 20日の 11時(UTC)まで徐々に
南東の風 7kt
20日の 18時(UTC)から 20日の 20時(UTC)まで徐々に
南/南東の風 12kt
21日の 00時(UTC)から 21日の 02時(UTC)まで徐々に
の風 10kt

TAF: SCCI 200456Z 2006/2106 04005KT CAVOK TNM00/2009Z TX14/2018Z TEMPO 2007/2017 VRB04KT 9999 FEW040 BECMG 2009/2011 13007KT BECMG 2018/2020 15012KT BECMG 2100/2102 18010KT

4,000以上の空港の気象観測と天気予報(METAR報とTAF報)

利用可能な観測所は地図上に黄色い丸と赤い丸で示す。

丸の上にカーソルを重ねると観測所名を参照できる。

次にクリックすると気象観測と天気予報を参照できる。

マップの切り替え:黒色「×」印の緑ボタンをクリックして拡大、「-」印の緑ボタンをクリックして縮小、緑色の三角印をクリックして隣りの地図に切り替え


METAR-TAF: